sensor_id;sensor_type;location;lat;lon;timestamp;P1;durP1;ratioP1;P2;durP2;ratioP2
29330;SDS011;16331;52.528;13.342;2022-08-30T00:02:00;3.08;;;2.20;;
29330;SDS011;16331;52.528;13.342;2022-08-30T00:04:26;3.95;;;2.38;;
29330;SDS011;16331;52.528;13.342;2022-08-30T00:06:52;4.50;;;2.15;;
29330;SDS011;16331;52.528;13.342;2022-08-30T00:09:18;2.67;;;1.95;;
29330;SDS011;16331;52.528;13.342;2022-08-30T00:11:44;6.03;;;2.13;;
29330;SDS011;16331;52.528;13.342;2022-08-30T00:14:10;3.47;;;2.22;;
29330;SDS011;16331;52.528;13.342;2022-08-30T00:16:36;5.43;;;2.25;;
29330;SDS011;16331;52.528;13.342;2022-08-30T00:19:02;4.60;;;2.13;;
29330;SDS011;16331;52.528;13.342;2022-08-30T00:21:28;3.72;;;2.08;;
29330;SDS011;16331;52.528;13.342;2022-08-30T00:23:55;3.15;;;2.20;;
29330;SDS011;16331;52.528;13.342;2022-08-30T00:26:21;5.63;;;2.50;;
29330;SDS011;16331;52.528;13.342;2022-08-30T00:28:47;3.15;;;1.80;;
29330;SDS011;16331;52.528;13.342;2022-08-30T00:31:13;3.13;;;2.10;;
29330;SDS011;16331;52.528;13.342;2022-08-30T00:33:39;2.92;;;1.95;;
29330;SDS011;16331;52.528;13.342;2022-08-30T00:36:05;3.58;;;2.17;;
29330;SDS011;16331;52.528;13.342;2022-08-30T00:38:31;5.47;;;2.58;;
29330;SDS011;16331;52.528;13.342;2022-08-30T00:41:01;4.90;;;2.03;;
29330;SDS011;16331;52.528;13.342;2022-08-30T00:43:29;6.00;;;2.05;;
29330;SDS011;16331;52.528;13.342;2022-08-30T00:45:57;3.05;;;1.85;;
29330;SDS011;16331;52.528;13.342;2022-08-30T00:48:24;3.00;;;2.08;;
29330;SDS011;16331;52.528;13.342;2022-08-30T00:50:52;3.35;;;2.20;;
29330;SDS011;16331;52.528;13.342;2022-08-30T00:53:25;3.45;;;2.40;;
29330;SDS011;16331;52.528;13.342;2022-08-30T00:55:56;4.63;;;2.83;;
29330;SDS011;16331;52.528;13.342;2022-08-30T00:58:26;4.65;;;2.25;;
29330;SDS011;16331;52.528;13.342;2022-08-30T01:00:56;6.82;;;2.13;;
29330;SDS011;16331;52.528;13.342;2022-08-30T01:03:24;4.22;;;2.80;;
29330;SDS011;16331;52.528;13.342;2022-08-30T01:05:50;4.35;;;2.33;;
29330;SDS011;16331;52.528;13.342;2022-08-30T01:08:18;5.38;;;3.38;;
29330;SDS011;16331;52.528;13.342;2022-08-30T01:10:46;5.85;;;3.22;;
29330;SDS011;16331;52.528;13.342;2022-08-30T01:13:14;3.95;;;3.13;;
29330;SDS011;16331;52.528;13.342;2022-08-30T01:15:40;4.63;;;2.88;;
29330;SDS011;16331;52.528;13.342;2022-08-30T01:18:08;4.45;;;2.72;;
29330;SDS011;16331;52.528;13.342;2022-08-30T01:23:24;4.82;;;2.97;;
29330;SDS011;16331;52.528;13.342;2022-08-30T01:25:51;4.60;;;3.25;;
29330;SDS011;16331;52.528;13.342;2022-08-30T01:28:19;5.20;;;2.85;;
29330;SDS011;16331;52.528;13.342;2022-08-30T01:30:48;5.47;;;2.65;;
29330;SDS011;16331;52.528;13.342;2022-08-30T01:33:15;4.57;;;2.88;;
29330;SDS011;16331;52.528;13.342;2022-08-30T01:35:47;7.20;;;3.28;;
29330;SDS011;16331;52.528;13.342;2022-08-30T01:38:19;6.88;;;3.72;;
29330;SDS011;16331;52.528;13.342;2022-08-30T01:40:48;6.20;;;3.22;;
29330;SDS011;16331;52.528;13.342;2022-08-30T01:43:14;3.72;;;2.53;;
29330;SDS011;16331;52.528;13.342;2022-08-30T01:45:42;6.07;;;3.83;;
29330;SDS011;16331;52.528;13.342;2022-08-30T01:48:08;5.03;;;2.97;;
29330;SDS011;16331;52.528;13.342;2022-08-30T01:50:37;5.90;;;3.33;;
29330;SDS011;16331;52.528;13.342;2022-08-30T01:53:04;7.13;;;3.40;;
29330;SDS011;16331;52.528;13.342;2022-08-30T01:55:30;6.65;;;3.55;;
29330;SDS011;16331;52.528;13.342;2022-08-30T01:57:56;5.82;;;3.55;;
29330;SDS011;16331;52.528;13.342;2022-08-30T02:00:23;7.78;;;4.18;;
29330;SDS011;16331;52.528;13.342;2022-08-30T02:02:49;5.55;;;3.58;;
29330;SDS011;16331;52.528;13.342;2022-08-30T02:05:15;6.55;;;4.20;;
29330;SDS011;16331;52.528;13.342;2022-08-30T02:07:41;8.27;;;4.03;;
29330;SDS011;16331;52.528;13.342;2022-08-30T02:10:08;4.78;;;3.00;;
29330;SDS011;16331;52.528;13.342;2022-08-30T02:12:34;5.80;;;3.80;;
29330;SDS011;16331;52.528;13.342;2022-08-30T02:15:00;9.02;;;4.05;;
29330;SDS011;16331;52.528;13.342;2022-08-30T02:17:26;6.20;;;3.53;;
29330;SDS011;16331;52.528;13.342;2022-08-30T02:19:55;8.05;;;4.38;;
29330;SDS011;16331;52.528;13.342;2022-08-30T02:22:22;6.45;;;3.53;;
29330;SDS011;16331;52.528;13.342;2022-08-30T02:24:48;7.25;;;3.97;;
29330;SDS011;16331;52.528;13.342;2022-08-30T02:27:14;6.72;;;3.05;;
29330;SDS011;16331;52.528;13.342;2022-08-30T02:29:40;8.63;;;4.13;;
29330;SDS011;16331;52.528;13.342;2022-08-30T02:32:07;7.28;;;3.88;;
29330;SDS011;16331;52.528;13.342;2022-08-30T02:34:33;8.23;;;4.32;;
29330;SDS011;16331;52.528;13.342;2022-08-30T02:36:59;7.88;;;4.07;;
29330;SDS011;16331;52.528;13.342;2022-08-30T02:39:32;5.75;;;3.88;;
29330;SDS011;16331;52.528;13.342;2022-08-30T02:41:58;5.95;;;3.78;;
29330;SDS011;16331;52.528;13.342;2022-08-30T02:44:24;6.57;;;4.40;;
29330;SDS011;16331;52.528;13.342;2022-08-30T02:46:50;9.32;;;4.38;;
29330;SDS011;16331;52.528;13.342;2022-08-30T02:49:16;7.43;;;4.45;;
29330;SDS011;16331;52.528;13.342;2022-08-30T02:51:42;7.55;;;4.18;;
29330;SDS011;16331;52.528;13.342;2022-08-30T02:54:11;7.32;;;4.78;;
29330;SDS011;16331;52.528;13.342;2022-08-30T02:56:43;9.25;;;4.30;;
29330;SDS011;16331;52.528;13.342;2022-08-30T02:59:13;7.88;;;4.20;;
29330;SDS011;16331;52.528;13.342;2022-08-30T03:01:40;8.07;;;4.22;;
29330;SDS011;16331;52.528;13.342;2022-08-30T03:04:07;7.20;;;4.55;;
29330;SDS011;16331;52.528;13.342;2022-08-30T03:06:33;6.45;;;3.85;;
29330;SDS011;16331;52.528;13.342;2022-08-30T03:09:00;7.93;;;4.90;;
29330;SDS011;16331;52.528;13.342;2022-08-30T03:11:26;10.40;;;5.60;;
29330;SDS011;16331;52.528;13.342;2022-08-30T03:13:53;8.35;;;4.65;;
29330;SDS011;16331;52.528;13.342;2022-08-30T03:16:19;8.32;;;4.50;;
29330;SDS011;16331;52.528;13.342;2022-08-30T03:18:47;8.73;;;4.18;;
29330;SDS011;16331;52.528;13.342;2022-08-30T03:21:14;7.90;;;4.53;;
29330;SDS011;16331;52.528;13.342;2022-08-30T03:23:41;9.38;;;4.72;;
29330;SDS011;16331;52.528;13.342;2022-08-30T03:26:10;8.07;;;4.40;;
29330;SDS011;16331;52.528;13.342;2022-08-30T03:28:39;10.10;;;5.30;;
29330;SDS011;16331;52.528;13.342;2022-08-30T03:31:06;15.38;;;4.85;;
29330;SDS011;16331;52.528;13.342;2022-08-30T03:33:33;7.65;;;4.97;;
29330;SDS011;16331;52.528;13.342;2022-08-30T03:36:00;8.73;;;4.43;;
29330;SDS011;16331;52.528;13.342;2022-08-30T03:38:26;8.80;;;4.38;;
29330;SDS011;16331;52.528;13.342;2022-08-30T03:40:52;6.55;;;3.95;;
29330;SDS011;16331;52.528;13.342;2022-08-30T03:43:18;6.07;;;4.10;;
29330;SDS011;16331;52.528;13.342;2022-08-30T03:45:44;6.63;;;4.32;;
29330;SDS011;16331;52.528;13.342;2022-08-30T03:48:13;10.07;;;4.97;;
29330;SDS011;16331;52.528;13.342;2022-08-30T03:50:39;6.38;;;4.20;;
29330;SDS011;16331;52.528;13.342;2022-08-30T03:53:05;9.15;;;4.78;;
29330;SDS011;16331;52.528;13.342;2022-08-30T03:55:31;8.18;;;4.70;;
29330;SDS011;16331;52.528;13.342;2022-08-30T03:57:58;6.95;;;3.85;;
29330;SDS011;16331;52.528;13.342;2022-08-30T04:00:24;7.35;;;4.10;;
29330;SDS011;16331;52.528;13.342;2022-08-30T04:02:50;8.35;;;4.75;;
29330;SDS011;16331;52.528;13.342;2022-08-30T04:05:16;7.63;;;4.70;;
29330;SDS011;16331;52.528;13.342;2022-08-30T04:07:42;8.52;;;4.03;;
29330;SDS011;16331;52.528;13.342;2022-08-30T04:10:08;8.05;;;4.07;;
29330;SDS011;16331;52.528;13.342;2022-08-30T04:12:35;8.05;;;4.65;;
29330;SDS011;16331;52.528;13.342;2022-08-30T04:15:01;7.97;;;4.40;;
29330;SDS011;16331;52.528;13.342;2022-08-30T04:17:28;7.03;;;4.38;;
29330;SDS011;16331;52.528;13.342;2022-08-30T04:20:16;6.82;;;4.03;;
29330;SDS011;16331;52.528;13.342;2022-08-30T04:22:46;7.50;;;4.28;;
29330;SDS011;16331;52.528;13.342;2022-08-30T04:25:12;7.97;;;4.65;;
29330;SDS011;16331;52.528;13.342;2022-08-30T04:27:38;8.82;;;4.80;;
29330;SDS011;16331;52.528;13.342;2022-08-30T04:30:05;8.35;;;4.72;;
29330;SDS011;16331;52.528;13.342;2022-08-30T04:32:33;10.10;;;4.53;;
29330;SDS011;16331;52.528;13.342;2022-08-30T04:35:02;7.95;;;3.95;;
29330;SDS011;16331;52.528;13.342;2022-08-30T04:37:29;8.93;;;4.72;;
29330;SDS011;16331;52.528;13.342;2022-08-30T04:39:56;7.97;;;4.60;;
29330;SDS011;16331;52.528;13.342;2022-08-30T04:42:25;8.30;;;4.63;;
29330;SDS011;16331;52.528;13.342;2022-08-30T04:44:56;7.88;;;4.28;;
29330;SDS011;16331;52.528;13.342;2022-08-30T04:47:22;8.27;;;4.40;;
29330;SDS011;16331;52.528;13.342;2022-08-30T04:49:48;9.75;;;4.47;;
29330;SDS011;16331;52.528;13.342;2022-08-30T04:52:15;7.10;;;4.25;;
29330;SDS011;16331;52.528;13.342;2022-08-30T04:54:41;7.55;;;4.43;;
29330;SDS011;16331;52.528;13.342;2022-08-30T04:57:07;6.70;;;4.28;;
29330;SDS011;16331;52.528;13.342;2022-08-30T04:59:33;8.10;;;3.95;;
29330;SDS011;16331;52.528;13.342;2022-08-30T05:02:00;8.93;;;4.90;;
29330;SDS011;16331;52.528;13.342;2022-08-30T05:04:26;11.35;;;4.47;;
29330;SDS011;16331;52.528;13.342;2022-08-30T05:06:52;8.95;;;4.72;;
29330;SDS011;16331;52.528;13.342;2022-08-30T05:09:18;7.95;;;4.35;;
29330;SDS011;16331;52.528;13.342;2022-08-30T05:11:45;8.40;;;4.70;;
29330;SDS011;16331;52.528;13.342;2022-08-30T05:14:11;6.53;;;4.65;;
29330;SDS011;16331;52.528;13.342;2022-08-30T05:16:38;8.80;;;4.82;;
29330;SDS011;16331;52.528;13.342;2022-08-30T05:19:05;9.90;;;4.93;;
29330;SDS011;16331;52.528;13.342;2022-08-30T05:21:32;6.35;;;4.28;;
29330;SDS011;16331;52.528;13.342;2022-08-30T05:23:59;7.32;;;4.40;;
29330;SDS011;16331;52.528;13.342;2022-08-30T05:26:27;6.93;;;4.50;;
29330;SDS011;16331;52.528;13.342;2022-08-30T05:28:54;13.90;;;4.45;;
29330;SDS011;16331;52.528;13.342;2022-08-30T05:33:54;6.30;;;3.95;;
29330;SDS011;16331;52.528;13.342;2022-08-30T05:36:24;10.95;;;4.05;;
29330;SDS011;16331;52.528;13.342;2022-08-30T05:38:54;7.50;;;3.95;;
29330;SDS011;16331;52.528;13.342;2022-08-30T05:41:24;8.82;;;4.80;;
29330;SDS011;16331;52.528;13.342;2022-08-30T05:43:51;6.05;;;3.83;;
29330;SDS011;16331;52.528;13.342;2022-08-30T05:46:22;10.52;;;3.85;;
29330;SDS011;16331;52.528;13.342;2022-08-30T05:48:48;8.48;;;4.28;;
29330;SDS011;16331;52.528;13.342;2022-08-30T05:51:16;6.90;;;4.32;;
29330;SDS011;16331;52.528;13.342;2022-08-30T05:53:47;7.20;;;3.67;;
29330;SDS011;16331;52.528;13.342;2022-08-30T05:56:15;11.55;;;4.25;;
29330;SDS011;16331;52.528;13.342;2022-08-30T05:58:44;7.03;;;4.22;;
29330;SDS011;16331;52.528;13.342;2022-08-30T06:01:45;6.60;;;4.30;;
29330;SDS011;16331;52.528;13.342;2022-08-30T06:04:05;8.73;;;4.55;;
29330;SDS011;16331;52.528;13.342;2022-08-30T06:06:33;8.23;;;4.55;;
29330;SDS011;16331;52.528;13.342;2022-08-30T06:09:01;6.53;;;4.15;;
29330;SDS011;16331;52.528;13.342;2022-08-30T06:11:29;7.05;;;4.10;;
29330;SDS011;16331;52.528;13.342;2022-08-30T06:13:56;6.93;;;4.00;;
29330;SDS011;16331;52.528;13.342;2022-08-30T06:16:23;15.63;;;7.65;;
29330;SDS011;16331;52.528;13.342;2022-08-30T06:18:51;10.70;;;5.40;;
29330;SDS011;16331;52.528;13.342;2022-08-30T06:21:19;22.10;;;10.00;;
29330;SDS011;16331;52.528;13.342;2022-08-30T06:23:47;9.73;;;4.93;;
29330;SDS011;16331;52.528;13.342;2022-08-30T06:26:13;6.55;;;4.07;;
29330;SDS011;16331;52.528;13.342;2022-08-30T06:28:40;8.35;;;4.03;;
29330;SDS011;16331;52.528;13.342;2022-08-30T06:31:07;4.88;;;3.70;;
29330;SDS011;16331;52.528;13.342;2022-08-30T06:33:35;6.13;;;3.67;;
29330;SDS011;16331;52.528;13.342;2022-08-30T06:36:09;7.18;;;3.80;;
29330;SDS011;16331;52.528;13.342;2022-08-30T06:38:38;6.32;;;3.80;;
29330;SDS011;16331;52.528;13.342;2022-08-30T06:41:05;10.30;;;5.15;;
29330;SDS011;16331;52.528;13.342;2022-08-30T06:43:37;6.82;;;3.72;;
29330;SDS011;16331;52.528;13.342;2022-08-30T06:46:04;6.07;;;3.95;;
29330;SDS011;16331;52.528;13.342;2022-08-30T06:48:37;7.82;;;4.22;;
29330;SDS011;16331;52.528;13.342;2022-08-30T06:51:03;11.23;;;5.75;;
29330;SDS011;16331;52.528;13.342;2022-08-30T06:53:30;12.65;;;6.45;;
29330;SDS011;16331;52.528;13.342;2022-08-30T06:56:00;9.32;;;5.22;;
29330;SDS011;16331;52.528;13.342;2022-08-30T06:58:30;9.38;;;5.13;;
29330;SDS011;16331;52.528;13.342;2022-08-30T07:00:59;9.30;;;4.97;;
29330;SDS011;16331;52.528;13.342;2022-08-30T07:03:29;8.20;;;4.68;;
29330;SDS011;16331;52.528;13.342;2022-08-30T07:05:57;7.30;;;4.32;;
29330;SDS011;16331;52.528;13.342;2022-08-30T07:08:24;7.22;;;4.47;;
29330;SDS011;16331;52.528;13.342;2022-08-30T07:10:51;6.78;;;3.88;;
29330;SDS011;16331;52.528;13.342;2022-08-30T07:13:19;8.07;;;3.90;;
29330;SDS011;16331;52.528;13.342;2022-08-30T07:15:47;7.65;;;4.47;;
29330;SDS011;16331;52.528;13.342;2022-08-30T07:18:14;8.82;;;4.65;;
29330;SDS011;16331;52.528;13.342;2022-08-30T07:21:04;8.23;;;5.40;;
29330;SDS011;16331;52.528;13.342;2022-08-30T07:23:32;6.80;;;4.35;;
29330;SDS011;16331;52.528;13.342;2022-08-30T07:26:01;10.75;;;4.95;;
29330;SDS011;16331;52.528;13.342;2022-08-30T07:28:32;9.40;;;4.97;;
29330;SDS011;16331;52.528;13.342;2022-08-30T07:31:01;8.10;;;4.95;;
29330;SDS011;16331;52.528;13.342;2022-08-30T07:33:28;8.77;;;4.78;;
29330;SDS011;16331;52.528;13.342;2022-08-30T07:35:55;13.05;;;5.63;;
29330;SDS011;16331;52.528;13.342;2022-08-30T07:38:23;13.50;;;7.05;;
29330;SDS011;16331;52.528;13.342;2022-08-30T07:40:50;10.07;;;5.03;;
29330;SDS011;16331;52.528;13.342;2022-08-30T07:43:16;9.63;;;5.65;;
29330;SDS011;16331;52.528;13.342;2022-08-30T07:45:43;10.30;;;5.45;;
29330;SDS011;16331;52.528;13.342;2022-08-30T07:48:11;10.30;;;5.18;;
29330;SDS011;16331;52.528;13.342;2022-08-30T07:50:37;14.50;;;7.10;;
29330;SDS011;16331;52.528;13.342;2022-08-30T07:53:08;12.93;;;7.70;;
29330;SDS011;16331;52.528;13.342;2022-08-30T07:55:34;11.45;;;5.95;;
29330;SDS011;16331;52.528;13.342;2022-08-30T07:58:00;11.05;;;6.22;;
29330;SDS011;16331;52.528;13.342;2022-08-30T08:00:26;9.60;;;5.65;;
29330;SDS011;16331;52.528;13.342;2022-08-30T08:02:53;8.73;;;5.07;;
29330;SDS011;16331;52.528;13.342;2022-08-30T08:05:19;10.23;;;5.72;;
29330;SDS011;16331;52.528;13.342;2022-08-30T08:07:45;6.57;;;4.50;;
29330;SDS011;16331;52.528;13.342;2022-08-30T08:10:12;6.03;;;3.70;;
29330;SDS011;16331;52.528;13.342;2022-08-30T08:12:39;6.75;;;3.67;;
29330;SDS011;16331;52.528;13.342;2022-08-30T08:15:05;5.70;;;3.35;;
29330;SDS011;16331;52.528;13.342;2022-08-30T08:17:32;6.53;;;3.90;;
29330;SDS011;16331;52.528;13.342;2022-08-30T08:19:58;8.30;;;4.90;;
29330;SDS011;16331;52.528;13.342;2022-08-30T08:22:24;6.97;;;4.32;;
29330;SDS011;16331;52.528;13.342;2022-08-30T08:24:50;5.85;;;3.70;;
29330;SDS011;16331;52.528;13.342;2022-08-30T08:27:16;7.50;;;4.22;;
29330;SDS011;16331;52.528;13.342;2022-08-30T08:29:42;5.15;;;3.45;;
29330;SDS011;16331;52.528;13.342;2022-08-30T08:32:08;7.22;;;3.65;;
29330;SDS011;16331;52.528;13.342;2022-08-30T08:34:35;4.97;;;3.40;;
29330;SDS011;16331;52.528;13.342;2022-08-30T08:37:01;5.95;;;3.70;;
29330;SDS011;16331;52.528;13.342;2022-08-30T08:39:27;6.22;;;3.53;;
29330;SDS011;16331;52.528;13.342;2022-08-30T08:42:12;3.92;;;2.88;;
29330;SDS011;16331;52.528;13.342;2022-08-30T08:45:05;3.72;;;2.80;;
29330;SDS011;16331;52.528;13.342;2022-08-30T08:50:27;4.35;;;2.97;;
29330;SDS011;16331;52.528;13.342;2022-08-30T08:52:56;4.10;;;2.53;;
29330;SDS011;16331;52.528;13.342;2022-08-30T08:56:05;7.75;;;3.33;;
29330;SDS011;16331;52.528;13.342;2022-08-30T08:58:47;4.30;;;2.83;;
29330;SDS011;16331;52.528;13.342;2022-08-30T09:01:19;4.07;;;2.95;;
29330;SDS011;16331;52.528;13.342;2022-08-30T09:03:47;4.70;;;2.67;;
29330;SDS011;16331;52.528;13.342;2022-08-30T09:06:20;4.88;;;3.40;;
29330;SDS011;16331;52.528;13.342;2022-08-30T09:09:01;7.15;;;3.67;;
29330;SDS011;16331;52.528;13.342;2022-08-30T09:11:29;3.38;;;2.30;;
29330;SDS011;16331;52.528;13.342;2022-08-30T09:13:57;5.47;;;2.50;;
29330;SDS011;16331;52.528;13.342;2022-08-30T09:19:09;6.03;;;1.33;;
29330;SDS011;16331;52.528;13.342;2022-08-30T09:21:35;4.00;;;1.10;;
29330;SDS011;16331;52.528;13.342;2022-08-30T09:24:03;2.22;;;1.00;;
29330;SDS011;16331;52.528;13.342;2022-08-30T09:26:33;1.52;;;0.90;;
29330;SDS011;16331;52.528;13.342;2022-08-30T09:29:02;5.65;;;0.93;;
29330;SDS011;16331;52.528;13.342;2022-08-30T09:31:33;1.17;;;0.80;;
29330;SDS011;16331;52.528;13.342;2022-08-30T09:34:15;0.65;;;0.60;;
29330;SDS011;16331;52.528;13.342;2022-08-30T09:36:45;1.23;;;0.73;;
29330;SDS011;16331;52.528;13.342;2022-08-30T09:39:27;1.75;;;1.00;;
29330;SDS011;16331;52.528;13.342;2022-08-30T09:42:11;2.33;;;0.88;;
29330;SDS011;16331;52.528;13.342;2022-08-30T09:44:42;0.68;;;0.60;;
29330;SDS011;16331;52.528;13.342;2022-08-30T09:47:17;2.33;;;1.20;;
29330;SDS011;16331;52.528;13.342;2022-08-30T09:49:43;3.53;;;0.70;;
29330;SDS011;16331;52.528;13.342;2022-08-30T09:52:21;1.95;;;0.90;;
29330;SDS011;16331;52.528;13.342;2022-08-30T10:00:27;3.88;;;1.00;;
29330;SDS011;16331;52.528;13.342;2022-08-30T10:06:02;1.15;;;0.60;;
29330;SDS011;16331;52.528;13.342;2022-08-30T10:08:46;1.20;;;0.60;;
29330;SDS011;16331;52.528;13.342;2022-08-30T10:11:26;0.98;;;0.57;;
29330;SDS011;16331;52.528;13.342;2022-08-30T10:14:45;1.15;;;0.95;;
29330;SDS011;16331;52.528;13.342;2022-08-30T10:16:56;2.30;;;1.08;;
29330;SDS011;16331;52.528;13.342;2022-08-30T10:31:06;1.55;;;1.13;;
29330;SDS011;16331;52.528;13.342;2022-08-30T10:33:38;1.17;;;0.80;;
29330;SDS011;16331;52.528;13.342;2022-08-30T10:36:09;1.20;;;0.73;;
29330;SDS011;16331;52.528;13.342;2022-08-30T10:38:45;1.48;;;1.00;;
29330;SDS011;16331;52.528;13.342;2022-08-30T10:41:21;1.02;;;0.63;;
29330;SDS011;16331;52.528;13.342;2022-08-30T10:44:00;2.35;;;0.70;;
29330;SDS011;16331;52.528;13.342;2022-08-30T10:46:46;3.97;;;0.47;;
29330;SDS011;16331;52.528;13.342;2022-08-30T10:49:40;1.48;;;0.65;;
29330;SDS011;16331;52.528;13.342;2022-08-30T10:52:32;1.55;;;1.02;;
29330;SDS011;16331;52.528;13.342;2022-08-30T10:54:57;1.23;;;0.45;;
29330;SDS011;16331;52.528;13.342;2022-08-30T10:57:34;1.10;;;0.40;;
29330;SDS011;16331;52.528;13.342;2022-08-30T11:00:02;0.52;;;0.32;;
29330;SDS011;16331;52.528;13.342;2022-08-30T11:02:45;0.95;;;0.32;;
29330;SDS011;16331;52.528;13.342;2022-08-30T11:10:46;1.23;;;0.40;;
29330;SDS011;16331;52.528;13.342;2022-08-30T11:13:26;1.73;;;0.60;;
29330;SDS011;16331;52.528;13.342;2022-08-30T11:16:00;0.68;;;0.57;;
29330;SDS011;16331;52.528;13.342;2022-08-30T11:21:21;1.35;;;0.70;;
29330;SDS011;16331;52.528;13.342;2022-08-30T11:24:40;1.90;;;0.77;;
29330;SDS011;16331;52.528;13.342;2022-08-30T11:42:37;1.70;;;0.60;;
29330;SDS011;16331;52.528;13.342;2022-08-30T11:47:57;6.93;;;1.75;;
29330;SDS011;16331;52.528;13.342;2022-08-30T11:50:38;2.33;;;0.95;;
29330;SDS011;16331;52.528;13.342;2022-08-30T11:53:43;3.65;;;1.08;;
29330;SDS011;16331;52.528;13.342;2022-08-30T11:56:48;1.30;;;0.68;;
29330;SDS011;16331;52.528;13.342;2022-08-30T12:10:59;1.13;;;0.47;;
29330;SDS011;16331;52.528;13.342;2022-08-30T12:16:14;1.13;;;0.65;;
29330;SDS011;16331;52.528;13.342;2022-08-30T12:19:09;0.85;;;0.50;;
29330;SDS011;16331;52.528;13.342;2022-08-30T12:21:42;5.15;;;0.63;;
29330;SDS011;16331;52.528;13.342;2022-08-30T12:24:25;1.25;;;0.70;;
29330;SDS011;16331;52.528;13.342;2022-08-30T12:26:53;1.23;;;0.60;;
29330;SDS011;16331;52.528;13.342;2022-08-30T12:29:26;0.73;;;0.55;;
29330;SDS011;16331;52.528;13.342;2022-08-30T12:31:56;0.93;;;0.68;;
29330;SDS011;16331;52.528;13.342;2022-08-30T12:34:36;1.10;;;0.70;;
29330;SDS011;16331;52.528;13.342;2022-08-30T12:40:09;0.70;;;0.40;;
29330;SDS011;16331;52.528;13.342;2022-08-30T12:42:40;2.97;;;1.10;;
29330;SDS011;16331;52.528;13.342;2022-08-30T12:45:19;1.95;;;0.60;;
29330;SDS011;16331;52.528;13.342;2022-08-30T12:47:52;0.80;;;0.68;;
29330;SDS011;16331;52.528;13.342;2022-08-30T12:50:26;1.63;;;0.65;;
29330;SDS011;16331;52.528;13.342;2022-08-30T12:53:04;2.90;;;1.15;;
29330;SDS011;16331;52.528;13.342;2022-08-30T12:55:48;1.90;;;0.75;;
29330;SDS011;16331;52.528;13.342;2022-08-30T12:58:32;3.03;;;0.60;;
29330;SDS011;16331;52.528;13.342;2022-08-30T13:06:41;2.03;;;1.08;;
29330;SDS011;16331;52.528;13.342;2022-08-30T13:09:19;2.30;;;1.40;;
29330;SDS011;16331;52.528;13.342;2022-08-30T13:12:07;2.20;;;1.10;;
29330;SDS011;16331;52.528;13.342;2022-08-30T13:14:44;2.05;;;1.20;;
29330;SDS011;16331;52.528;13.342;2022-08-30T13:17:23;2.20;;;1.35;;
29330;SDS011;16331;52.528;13.342;2022-08-30T13:20:05;3.47;;;2.15;;
29330;SDS011;16331;52.528;13.342;2022-08-30T13:25:27;3.65;;;2.25;;
29330;SDS011;16331;52.528;13.342;2022-08-30T13:27:54;2.80;;;1.48;;
29330;SDS011;16331;52.528;13.342;2022-08-30T13:30:21;1.60;;;0.90;;
29330;SDS011;16331;52.528;13.342;2022-08-30T13:32:47;2.95;;;1.30;;
29330;SDS011;16331;52.528;13.342;2022-08-30T13:35:13;2.25;;;1.00;;
29330;SDS011;16331;52.528;13.342;2022-08-30T13:37:39;2.65;;;1.30;;
29330;SDS011;16331;52.528;13.342;2022-08-30T13:40:07;1.85;;;1.20;;
29330;SDS011;16331;52.528;13.342;2022-08-30T13:42:34;2.20;;;1.20;;
29330;SDS011;16331;52.528;13.342;2022-08-30T13:45:00;15.20;;;7.57;;
29330;SDS011;16331;52.528;13.342;2022-08-30T13:47:26;2.90;;;1.50;;
29330;SDS011;16331;52.528;13.342;2022-08-30T13:49:56;3.00;;;1.23;;
29330;SDS011;16331;52.528;13.342;2022-08-30T13:52:30;2.30;;;1.10;;
29330;SDS011;16331;52.528;13.342;2022-08-30T13:54:56;2.80;;;1.35;;
29330;SDS011;16331;52.528;13.342;2022-08-30T13:57:24;3.70;;;1.30;;
29330;SDS011;16331;52.528;13.342;2022-08-30T13:59:51;2.28;;;1.30;;
29330;SDS011;16331;52.528;13.342;2022-08-30T14:02:17;2.53;;;1.23;;
29330;SDS011;16331;52.528;13.342;2022-08-30T14:04:43;1.75;;;1.17;;
29330;SDS011;16331;52.528;13.342;2022-08-30T14:07:09;2.75;;;1.65;;
29330;SDS011;16331;52.528;13.342;2022-08-30T14:09:36;1.90;;;1.20;;
29330;SDS011;16331;52.528;13.342;2022-08-30T14:12:02;2.40;;;1.40;;
29330;SDS011;16331;52.528;13.342;2022-08-30T14:14:28;1.73;;;1.10;;
29330;SDS011;16331;52.528;13.342;2022-08-30T14:16:54;3.03;;;1.17;;
29330;SDS011;16331;52.528;13.342;2022-08-30T14:19:20;2.05;;;1.25;;
29330;SDS011;16331;52.528;13.342;2022-08-30T14:21:46;1.77;;;1.15;;
29330;SDS011;16331;52.528;13.342;2022-08-30T14:24:12;1.15;;;0.90;;
29330;SDS011;16331;52.528;13.342;2022-08-30T14:26:43;3.80;;;1.33;;
29330;SDS011;16331;52.528;13.342;2022-08-30T14:29:13;0.98;;;0.70;;
29330;SDS011;16331;52.528;13.342;2022-08-30T14:31:41;0.63;;;0.55;;
29330;SDS011;16331;52.528;13.342;2022-08-30T14:34:08;1.52;;;1.00;;
29330;SDS011;16331;52.528;13.342;2022-08-30T14:36:36;6.63;;;1.25;;
29330;SDS011;16331;52.528;13.342;2022-08-30T14:39:04;1.55;;;0.90;;
29330;SDS011;16331;52.528;13.342;2022-08-30T14:41:32;0.73;;;0.70;;
29330;SDS011;16331;52.528;13.342;2022-08-30T14:43:59;1.38;;;0.90;;
29330;SDS011;16331;52.528;13.342;2022-08-30T14:46:25;1.30;;;0.80;;
29330;SDS011;16331;52.528;13.342;2022-08-30T14:48:52;1.50;;;1.02;;
29330;SDS011;16331;52.528;13.342;2022-08-30T14:51:20;1.80;;;0.98;;
29330;SDS011;16331;52.528;13.342;2022-08-30T14:53:49;2.90;;;1.60;;
29330;SDS011;16331;52.528;13.342;2022-08-30T14:56:17;2.63;;;1.98;;
29330;SDS011;16331;52.528;13.342;2022-08-30T14:58:47;1.63;;;1.35;;
29330;SDS011;16331;52.528;13.342;2022-08-30T15:01:15;2.00;;;1.40;;
29330;SDS011;16331;52.528;13.342;2022-08-30T15:03:45;2.95;;;1.70;;
29330;SDS011;16331;52.528;13.342;2022-08-30T15:06:11;2.33;;;1.70;;
29330;SDS011;16331;52.528;13.342;2022-08-30T15:08:37;2.63;;;1.23;;
29330;SDS011;16331;52.528;13.342;2022-08-30T15:11:10;3.47;;;1.90;;
29330;SDS011;16331;52.528;13.342;2022-08-30T15:13:38;4.72;;;1.80;;
29330;SDS011;16331;52.528;13.342;2022-08-30T15:16:09;3.97;;;2.03;;
29330;SDS011;16331;52.528;13.342;2022-08-30T15:18:41;3.45;;;1.48;;
29330;SDS011;16331;52.528;13.342;2022-08-30T15:21:08;5.88;;;1.58;;
29330;SDS011;16331;52.528;13.342;2022-08-30T15:23:35;2.20;;;1.60;;
29330;SDS011;16331;52.528;13.342;2022-08-30T15:26:02;2.28;;;1.35;;
29330;SDS011;16331;52.528;13.342;2022-08-30T15:28:29;2.22;;;1.40;;
29330;SDS011;16331;52.528;13.342;2022-08-30T15:30:55;2.45;;;1.83;;
29330;SDS011;16331;52.528;13.342;2022-08-30T15:33:21;3.85;;;1.67;;
29330;SDS011;16331;52.528;13.342;2022-08-30T15:35:48;2.13;;;1.38;;
29330;SDS011;16331;52.528;13.342;2022-08-30T15:38:16;2.85;;;1.75;;
29330;SDS011;16331;52.528;13.342;2022-08-30T15:40:43;5.22;;;1.40;;
29330;SDS011;16331;52.528;13.342;2022-08-30T15:43:12;2.55;;;1.40;;
29330;SDS011;16331;52.528;13.342;2022-08-30T15:45:38;2.00;;;1.40;;
29330;SDS011;16331;52.528;13.342;2022-08-30T15:48:05;3.85;;;1.73;;
29330;SDS011;16331;52.528;13.342;2022-08-30T15:50:31;3.47;;;1.70;;
29330;SDS011;16331;52.528;13.342;2022-08-30T15:52:57;2.53;;;1.88;;
29330;SDS011;16331;52.528;13.342;2022-08-30T15:55:24;3.63;;;2.00;;
29330;SDS011;16331;52.528;13.342;2022-08-30T15:57:50;3.95;;;1.95;;
29330;SDS011;16331;52.528;13.342;2022-08-30T16:00:16;4.35;;;1.65;;
29330;SDS011;16331;52.528;13.342;2022-08-30T16:02:43;3.13;;;1.48;;
29330;SDS011;16331;52.528;13.342;2022-08-30T16:05:12;3.70;;;1.30;;
29330;SDS011;16331;52.528;13.342;2022-08-30T16:07:39;4.60;;;1.90;;
29330;SDS011;16331;52.528;13.342;2022-08-30T16:10:05;3.28;;;1.70;;
29330;SDS011;16331;52.528;13.342;2022-08-30T16:12:32;3.88;;;1.70;;